Time;durP1;ratioP1;P1;durP2;ratioP2;P2;SDS_P1;SDS_P2;PMS_P1;PMS_P2;Temp;Humidity;BMP_temperature;BMP_pressure;BME280_temperature;BME280_humidity;BME280_pressure;Samples;Min_cycle;Max_cycle;Signal;HPM_P1;HPM_P2
2023/01/15 00:01:54;;;;;;;1.20;0.50;;;;;;;9.14;100.00;153706.75;4970916;28;20680;-84
2023/01/15 00:04:22;;;;;;;1.00;0.80;;;;;;;9.13;100.00;153704.19;4989298;28;20864;-84
2023/01/15 00:06:49;;;;;;;2.20;0.80;;;;;;;9.10;100.00;153697.72;4995943;28;20446;-84
2023/01/15 00:09:16;;;;;;;0.80;0.40;;;;;;;9.13;100.00;153704.19;4991707;28;20446;-84
2023/01/15 00:11:43;;;;;;;0.80;0.47;;;;;;;9.09;100.00;153695.13;4989583;28;20457;-84
2023/01/15 00:14:11;;;;;;;0.83;0.47;;;;;;;9.14;100.00;153708.03;4990039;28;20605;-84
2023/01/15 00:16:39;;;;;;;0.90;0.40;;;;;;;9.16;100.00;153713.22;4987862;28;20445;-84
2023/01/15 00:19:09;;;;;;;1.00;0.60;;;;;;;9.14;100.00;153706.75;4990056;28;20450;-84
2023/01/15 00:21:37;;;;;;;0.80;0.60;;;;;;;9.18;100.00;153717.13;4993645;28;20489;-84
2023/01/15 00:29:33;;;;;;;1.70;0.63;;;;;;;9.23;100.00;153730.03;4989922;28;20783;-84
2023/01/15 00:32:04;;;;;;;0.87;0.40;;;;;;;9.19;100.00;153719.69;4971563;28;20454;-84
2023/01/15 00:34:31;;;;;;;0.83;0.43;;;;;;;9.23;100.00;153730.03;4974086;28;20998;-84
2023/01/15 00:36:59;;;;;;;0.93;0.50;;;;;;;9.24;100.00;153732.59;4986061;28;20964;-84
2023/01/15 00:39:26;;;;;;;0.80;0.40;;;;;;;9.22;100.00;153727.44;4990043;28;20517;-84
2023/01/15 00:41:53;;;;;;;0.90;0.40;;;;;;;9.19;100.00;153719.69;4988117;28;20462;-78
2023/01/15 00:44:20;;;;;;;0.83;0.37;;;;;;;9.15;100.00;153710.66;4987835;28;20543;-78
2023/01/15 00:46:47;;;;;;;1.53;0.50;;;;;;;9.25;100.00;153735.22;5004670;28;20445;-78
2023/01/15 00:49:14;;;;;;;0.70;0.40;;;;;;;9.25;100.00;153735.22;4971762;28;20454;-78
2023/01/15 00:51:41;;;;;;;1.20;0.60;;;;;;;9.27;100.00;153740.38;5002716;28;20471;-78
2023/01/15 00:54:09;;;;;;;1.03;0.50;;;;;;;9.35;100.00;153761.06;4987169;28;20880;-78
2023/01/15 00:56:35;;;;;;;1.00;0.40;;;;;;;9.33;100.00;153754.59;5004410;28;20503;-78
2023/01/15 00:59:03;;;;;;;0.90;0.40;;;;;;;9.30;100.00;153748.13;4991661;28;20836;-78
2023/01/15 01:01:30;;;;;;;0.90;0.50;;;;;;;9.34;100.00;153758.50;4980453;28;20477;-78
2023/01/15 01:03:57;;;;;;;1.27;0.60;;;;;;;9.31;100.00;153750.75;4993199;28;20544;-78
2023/01/15 01:06:24;;;;;;;1.10;0.40;;;;;;;9.30;100.00;153748.13;4993835;28;20439;-78
2023/01/15 01:08:51;;;;;;;1.10;0.70;;;;;;;9.33;100.00;153755.91;4993665;28;20455;-78
2023/01/15 01:11:22;;;;;;;1.10;0.40;;;;;;;9.36;100.00;153763.66;4992835;28;20474;-78
2023/01/15 01:13:49;;;;;;;1.43;0.40;;;;;;;9.40;100.00;153772.75;4974588;28;20497;-78
2023/01/15 01:16:29;;;;;;;0.73;0.40;;;;;;;9.45;100.00;153786.94;4995926;28;20529;-78
2023/01/15 01:18:56;;;;;;;0.70;0.40;;;;;;;9.41;100.00;153775.31;5004184;28;20445;-78
2023/01/15 01:21:23;;;;;;;2.53;0.43;;;;;;;9.45;100.00;153786.94;4993181;28;20447;-78
2023/01/15 01:23:50;;;;;;;0.93;0.40;;;;;;;9.45;100.00;153786.94;4977448;28;20866;-79
2023/01/15 01:26:17;;;;;;;0.80;0.40;;;;;;;9.40;100.00;153774.00;4975733;28;20569;-79
2023/01/15 01:28:48;;;;;;;1.23;0.60;;;;;;;9.46;100.00;153789.53;5009057;28;20430;-78
2023/01/15 01:31:15;;;;;;;0.80;0.50;;;;;;;9.46;100.00;153789.53;4992712;28;21059;-79
2023/01/15 01:33:42;;;;;;;0.80;0.40;;;;;;;9.44;100.00;153784.38;4988243;28;20535;-78
2023/01/15 01:36:08;;;;;;;0.90;0.40;;;;;;;9.52;100.00;153805.06;4992660;28;21047;-78
2023/01/15 01:38:35;;;;;;;0.90;0.50;;;;;;;9.48;100.00;153794.69;4973259;28;20459;-78
2023/01/15 01:41:02;;;;;;;0.83;0.37;;;;;;;9.51;100.00;153802.47;4990835;28;20440;-78
2023/01/15 01:43:30;;;;;;;1.20;0.40;;;;;;;9.54;100.00;153810.25;4989853;28;20974;-78
2023/01/15 01:45:58;;;;;;;0.70;0.30;;;;;;;9.52;100.00;153805.06;5003347;28;20463;-78
2023/01/15 01:48:29;;;;;;;1.10;0.40;;;;;;;9.56;100.00;153815.41;4992638;28;20454;-78
2023/01/15 01:50:56;;;;;;;0.70;0.30;;;;;;;9.60;100.00;153825.78;5002508;28;20466;-78
2023/01/15 01:53:27;;;;;;;1.00;0.30;;;;;;;9.61;100.00;153828.34;5001154;28;20470;-78
2023/01/15 01:55:54;;;;;;;1.73;0.53;;;;;;;9.62;100.00;153830.94;4990026;28;20526;-78
2023/01/15 01:58:21;;;;;;;1.07;0.50;;;;;;;9.61;100.00;153828.34;4992578;28;20537;-78
2023/01/15 02:00:50;;;;;;;1.03;0.50;;;;;;;9.63;100.00;153833.53;5001917;28;20442;-78
2023/01/15 02:03:20;;;;;;;0.83;0.40;;;;;;;9.59;100.00;153823.16;4989586;28;20482;-78
2023/01/15 02:05:50;;;;;;;0.90;0.43;;;;;;;9.61;100.00;153828.34;5002251;28;20476;-79
2023/01/15 02:08:17;;;;;;;0.80;0.40;;;;;;;9.67;100.00;153843.88;4991521;28;20478;-78
2023/01/15 02:10:45;;;;;;;1.00;0.50;;;;;;;9.70;100.00;153850.34;4985830;28;20804;-79
2023/01/15 02:13:14;;;;;;;1.13;0.50;;;;;;;9.65;100.00;153838.72;4995685;28;20703;-85
2023/01/15 02:15:43;;;;;;;1.23;0.57;;;;;;;9.64;100.00;153834.81;5002553;28;20442;-85
2023/01/15 02:18:15;;;;;;;0.70;0.40;;;;;;;9.67;100.00;153842.56;4998366;28;20501;-84
2023/01/15 02:20:47;;;;;;;0.80;0.40;;;;;;;9.68;100.00;153845.16;4971729;28;20516;-84
2023/01/15 02:23:23;;;;;;;0.80;0.40;;;;;;;9.71;100.00;153852.94;4972593;28;20557;-84
2023/01/15 02:26:13;;;;;;;1.00;0.43;;;;;;;9.66;100.00;153841.25;4976180;28;20445;-84
2023/01/15 02:28:44;;;;;;;1.50;0.40;;;;;;;9.65;100.00;153837.41;4973554;28;20749;-85
2023/01/15 02:31:16;;;;;;;1.00;0.47;;;;;;;9.67;100.00;153843.88;4972313;28;20470;-84
2023/01/15 02:33:46;;;;;;;5.20;0.70;;;;;;;9.62;100.00;153829.63;4988489;28;20432;-84
2023/01/15 02:36:16;;;;;;;1.83;0.30;;;;;;;9.67;100.00;153843.88;4975917;28;20526;-84
2023/01/15 02:38:46;;;;;;;0.83;0.40;;;;;;;9.66;100.00;153841.25;4990058;28;20455;-84
2023/01/15 02:41:16;;;;;;;1.03;0.40;;;;;;;9.64;100.00;153834.81;4991540;28;20430;-84
2023/01/15 02:43:47;;;;;;;0.80;0.20;;;;;;;9.70;100.00;153850.34;4975441;28;20447;-84
2023/01/15 02:46:16;;;;;;;1.10;0.50;;;;;;;9.72;100.00;153855.50;4974756;28;20950;-84
2023/01/15 02:48:46;;;;;;;0.80;0.30;;;;;;;9.67;100.00;153843.88;4971812;28;20965;-84
2023/01/15 02:51:16;;;;;;;0.93;0.40;;;;;;;9.72;100.00;153855.50;4984427;28;20985;-84
2023/01/15 02:53:45;;;;;;;0.90;0.50;;;;;;;9.67;100.00;153843.88;4974983;28;20770;-84
2023/01/15 02:56:15;;;;;;;0.97;0.50;;;;;;;9.65;100.00;153838.72;4988759;28;20450;-84
2023/01/15 02:58:50;;;;;;;1.57;0.47;;;;;;;9.64;100.00;153834.81;4964303;28;20938;-78
2023/01/15 03:01:19;;;;;;;1.03;0.40;;;;;;;9.72;100.00;153856.81;4988310;28;20422;-78
2023/01/15 03:03:49;;;;;;;0.80;0.40;;;;;;;9.68;100.00;153846.47;4974653;28;20481;-78
2023/01/15 03:06:19;;;;;;;1.07;0.40;;;;;;;9.70;100.00;153851.63;4988789;28;20451;-78
2023/01/15 03:08:46;;;;;;;0.90;0.40;;;;;;;9.67;100.00;153843.88;5007431;28;20438;-78
2023/01/15 03:11:15;;;;;;;2.70;0.60;;;;;;;9.65;100.00;153837.41;4991473;28;20465;-78
2023/01/15 03:13:51;;;;;;;0.80;0.40;;;;;;;9.61;100.00;153828.34;4972067;28;20428;-78
2023/01/15 03:16:33;;;;;;;0.70;0.30;;;;;;;9.55;100.00;153812.84;4980490;28;20454;-78
2023/01/15 03:19:06;;;;;;;0.87;0.40;;;;;;;9.51;100.00;153802.47;4988438;28;20457;-78
2023/01/15 03:21:43;;;;;;;1.00;0.40;;;;;;;9.57;100.00;153818.00;4988932;28;20440;-78
2023/01/15 03:24:11;;;;;;;0.90;0.40;;;;;;;9.57;100.00;153818.00;4988355;28;20462;-78
2023/01/15 03:26:38;;;;;;;0.70;0.30;;;;;;;9.67;100.00;153843.88;4973426;28;21100;-78
2023/01/15 03:29:07;;;;;;;0.80;0.30;;;;;;;9.64;100.00;153836.09;5005957;28;20483;-78
2023/01/15 03:31:35;;;;;;;0.90;0.50;;;;;;;9.66;100.00;153841.25;4990450;28;20550;-78
2023/01/15 03:34:02;;;;;;;1.40;0.30;;;;;;;9.69;100.00;153849.03;4971670;28;20678;-78
2023/01/15 03:36:29;;;;;;;0.80;0.20;;;;;;;9.68;100.00;153846.47;4973902;28;20482;-78
2023/01/15 03:39:00;;;;;;;0.90;0.50;;;;;;;9.69;100.00;153847.72;4991671;28;20440;-78
2023/01/15 03:41:54;;;;;;;0.90;0.40;;;;;;;9.63;100.00;153833.53;4988955;28;20488;-78
2023/01/15 03:44:28;;;;;;;0.70;0.30;;;;;;;9.61;100.00;153828.34;4989867;28;20465;-78
2023/01/15 03:47:03;;;;;;;0.70;0.30;;;;;;;9.59;100.00;153823.16;4989764;28;20529;-78
2023/01/15 03:49:38;;;;;;;0.70;0.30;;;;;;;9.61;100.00;153828.34;4971483;28;20464;-78
2023/01/15 03:52:17;;;;;;;0.83;0.37;;;;;;;9.65;100.00;153837.41;4959668;28;20464;-78
2023/01/15 03:54:49;;;;;;;0.90;0.30;;;;;;;9.61;100.00;153828.34;4980883;28;20551;-78
2023/01/15 03:57:23;;;;;;;1.07;0.40;;;;;;;9.62;100.00;153830.94;4963046;28;20541;-78
2023/01/15 03:59:54;;;;;;;0.70;0.30;;;;;;;9.63;100.00;153833.53;4973952;28;20493;-78
2023/01/15 04:02:22;;;;;;;0.70;0.30;;;;;;;9.69;100.00;153849.03;4973740;28;20942;-78
2023/01/15 04:04:50;;;;;;;0.90;0.30;;;;;;;9.65;100.00;153838.72;4989225;28;20500;-78
2023/01/15 04:07:18;;;;;;;0.83;0.30;;;;;;;9.65;100.00;153838.72;4989678;28;20536;-78
2023/01/15 04:09:45;;;;;;;0.80;0.30;;;;;;;9.74;100.00;153861.97;4972266;28;20456;-78
2023/01/15 04:12:12;;;;;;;0.70;0.30;;;;;;;9.71;100.00;153854.25;4989526;28;20475;-78
2023/01/15 04:14:46;;;;;;;0.70;0.33;;;;;;;9.74;100.00;153861.97;4972185;28;20481;-78
2023/01/15 04:17:21;;;;;;;0.90;0.30;;;;;;;9.80;100.00;153877.50;4972112;28;20435;-78
2023/01/15 04:19:47;;;;;;;0.80;0.20;;;;;;;9.78;100.00;153872.34;5003354;28;20791;-78
2023/01/15 04:22:14;;;;;;;0.70;0.30;;;;;;;9.78;100.00;153871.03;4989075;28;20443;-78
2023/01/15 04:24:41;;;;;;;0.80;0.30;;;;;;;9.77;100.00;153868.44;5002435;28;20567;-78
2023/01/15 04:27:08;;;;;;;0.90;0.40;;;;;;;9.75;100.00;153864.56;4998485;28;20450;-78
2023/01/15 04:29:34;;;;;;;0.80;0.30;;;;;;;9.72;100.00;153856.81;4991453;28;20539;-78
2023/01/15 04:32:02;;;;;;;0.90;0.40;;;;;;;9.80;100.00;153877.50;4990205;28;20471;-78
2023/01/15 04:34:30;;;;;;;0.80;0.30;;;;;;;9.74;100.00;153860.72;4994619;28;20572;-78
2023/01/15 04:36:57;;;;;;;0.80;0.40;;;;;;;9.77;100.00;153868.44;4998186;28;20808;-78
2023/01/15 04:39:24;;;;;;;2.67;0.23;;;;;;;9.75;100.00;153864.56;4993183;28;20934;-78
2023/01/15 04:44:36;;;;;;;0.60;0.20;;;;;;;9.79;100.00;153874.91;4990892;28;20454;-78
2023/01/15 04:47:03;;;;;;;0.80;0.20;;;;;;;9.86;100.00;153891.75;5010172;28;20793;-78
2023/01/15 04:49:31;;;;;;;0.67;0.27;;;;;;;9.89;100.00;153898.22;4988997;28;20473;-78
2023/01/15 04:51:58;;;;;;;0.80;0.30;;;;;;;9.92;100.00;153906.00;4993112;28;20561;-78
2023/01/15 04:54:24;;;;;;;0.70;0.30;;;;;;;9.90;100.00;153902.06;5000508;28;20489;-78
2023/01/15 04:56:53;;;;;;;0.60;0.20;;;;;;;9.96;100.00;153916.31;5000487;28;20437;-78
2023/01/15 04:59:21;;;;;;;0.80;0.30;;;;;;;9.99;100.00;153925.38;4991011;28;20485;-78
2023/01/15 05:01:48;;;;;;;0.70;0.30;;;;;;;9.94;100.00;153911.16;4984925;28;20997;-78
2023/01/15 05:04:15;;;;;;;1.20;0.40;;;;;;;9.94;100.00;153911.16;4992539;28;20489;-78
2023/01/15 05:06:43;;;;;;;0.70;0.30;;;;;;;9.98;100.00;153922.78;4992697;28;20472;-78
2023/01/15 05:09:09;;;;;;;0.70;0.30;;;;;;;9.94;100.00;153912.47;4991998;28;20451;-78
2023/01/15 05:11:37;;;;;;;0.70;0.30;;;;;;;9.99;100.00;153924.09;4993099;28;20518;-78
2023/01/15 05:14:04;;;;;;;0.90;0.30;;;;;;;9.97;100.00;153920.22;4994190;28;20807;-78
2023/01/15 05:16:31;;;;;;;0.80;0.40;;;;;;;10.01;100.00;153929.25;4992161;28;20494;-78
2023/01/15 05:18:59;;;;;;;0.70;0.30;;;;;;;10.05;100.00;153939.63;4990581;28;20589;-78
2023/01/15 05:21:27;;;;;;;0.70;0.30;;;;;;;10.04;100.00;153937.03;4992482;28;20450;-78
2023/01/15 05:23:56;;;;;;;0.70;0.30;;;;;;;10.06;100.00;153942.25;4994221;28;20439;-79
2023/01/15 05:26:24;;;;;;;1.10;0.30;;;;;;;10.01;100.00;153930.56;4993647;28;20459;-78
2023/01/15 05:28:53;;;;;;;0.80;0.30;;;;;;;9.93;100.00;153908.59;4994226;28;20443;-78
2023/01/15 05:31:20;;;;;;;1.20;0.40;;;;;;;9.87;100.00;153893.06;5006214;28;20561;-80
2023/01/15 05:33:48;;;;;;;0.93;0.40;;;;;;;9.90;100.00;153900.81;5008397;28;20433;-80
2023/01/15 05:36:16;;;;;;;0.70;0.30;;;;;;;9.95;100.00;153915.06;4990786;28;20462;-80
2023/01/15 05:38:43;;;;;;;0.80;0.30;;;;;;;9.85;100.00;153889.16;4994254;28;21003;-78
2023/01/15 05:43:54;;;;;;;1.10;0.30;;;;;;;9.45;100.00;153785.69;4974400;28;20447;-78
2023/01/15 05:46:21;;;;;;;0.90;0.30;;;;;;;9.27;100.00;153740.38;4982485;28;20462;-78
2023/01/15 05:48:48;;;;;;;0.60;0.20;;;;;;;9.14;100.00;153708.03;4994250;28;20459;-78
2023/01/15 05:51:15;;;;;;;0.70;0.20;;;;;;;8.99;100.00;153667.97;4985117;28;20537;-78
2023/01/15 05:53:41;;;;;;;1.77;0.20;;;;;;;8.84;100.00;153629.19;4990719;28;20525;-78
2023/01/15 05:56:08;;;;;;;0.60;0.20;;;;;;;8.67;100.00;153585.22;4989713;28;20555;-78
2023/01/15 05:58:37;;;;;;;0.60;0.20;;;;;;;8.48;100.00;153538.69;4991957;28;20454;-78
2023/01/15 06:01:06;;;;;;;0.60;0.20;;;;;;;8.44;100.00;153527.06;4988077;28;20489;-78
2023/01/15 06:03:33;;;;;;;0.53;0.17;;;;;;;8.44;100.00;153527.06;4981399;28;21036;-78
2023/01/15 06:06:00;;;;;;;0.60;0.20;;;;;;;8.34;100.00;153501.22;4996692;28;20454;-78
2023/01/15 06:08:27;;;;;;;0.87;0.20;;;;;;;8.25;100.00;153477.88;4997666;28;20443;-77
2023/01/15 06:10:53;;;;;;;0.60;0.20;;;;;;;8.25;100.00;153479.19;4979393;28;20893;-78
2023/01/15 06:13:20;;;;;;;0.80;0.40;;;;;;;8.12;100.00;153445.59;4995785;28;20553;-77
2023/01/15 06:15:48;;;;;;;0.60;0.20;;;;;;;7.96;100.00;153404.22;5001472;28;20459;-78
2023/01/15 06:18:15;;;;;;;0.60;0.20;;;;;;;7.97;100.00;153408.09;4982806;28;20548;-77
2023/01/15 06:20:42;;;;;;;0.60;0.20;;;;;;;7.88;100.00;153384.88;4987546;28;20505;-77
2023/01/15 06:23:09;;;;;;;0.60;0.20;;;;;;;7.86;100.00;153378.41;4995809;28;20458;-78
2023/01/15 06:25:36;;;;;;;0.60;0.20;;;;;;;7.85;100.00;153375.81;4982656;28;20450;-78
2023/01/15 06:28:03;;;;;;;0.60;0.20;;;;;;;7.85;100.00;153377.09;4981336;28;21102;-77
2023/01/15 06:30:30;;;;;;;0.60;0.20;;;;;;;7.74;100.00;153347.38;4996507;28;20505;-78
2023/01/15 06:32:58;;;;;;;1.27;0.20;;;;;;;7.73;100.00;153344.81;4993330;28;20570;-77
2023/01/15 06:35:25;;;;;;;0.60;0.20;;;;;;;7.75;100.00;153351.28;4996855;28;20478;-77
2023/01/15 06:37:52;;;;;;;0.80;0.30;;;;;;;7.67;100.00;153330.59;4994286;28;20485;-77
2023/01/15 06:40:18;;;;;;;0.70;0.20;;;;;;;7.58;100.00;153307.34;5005017;28;20558;-77
2023/01/15 06:48:20;;;;;;;0.70;0.30;;;;;;;7.61;100.00;153313.78;4996034;28;20512;-77
2023/01/15 06:50:46;;;;;;;1.60;0.23;;;;;;;7.53;100.00;153293.13;4996560;28;20458;-77
2023/01/15 06:53:13;;;;;;;0.60;0.27;;;;;;;7.51;100.00;153287.97;4996599;28;20477;-84
2023/01/15 06:55:40;;;;;;;0.60;0.20;;;;;;;7.44;100.00;153269.91;4993540;28;20458;-84
2023/01/15 06:58:06;;;;;;;0.70;0.30;;;;;;;7.41;100.00;153262.16;4984249;28;20450;-84
2023/01/15 07:00:33;;;;;;;0.80;0.40;;;;;;;7.33;100.00;153244.03;4984864;28;20487;-84
2023/01/15 07:03:00;;;;;;;0.63;0.30;;;;;;;7.23;100.00;153216.91;4991474;28;20447;-84
2023/01/15 07:05:28;;;;;;;0.80;0.30;;;;;;;7.15;100.00;153197.56;4996751;28;20458;-83
2023/01/15 07:07:55;;;;;;;0.90;0.60;;;;;;;7.15;100.00;153197.56;4979137;28;20984;-84
2023/01/15 07:10:21;;;;;;;0.80;0.30;;;;;;;7.08;100.00;153179.50;4981468;28;20459;-85
2023/01/15 07:12:48;;;;;;;0.70;0.30;;;;;;;6.95;100.00;153145.94;4979023;28;20552;-85
2023/01/15 07:15:15;;;;;;;0.67;0.30;;;;;;;6.99;100.00;153156.25;4996040;28;20458;-84
2023/01/15 07:17:42;;;;;;;1.80;0.43;;;;;;;6.96;100.00;153148.53;4992697;28;20497;-85
2023/01/15 07:20:10;;;;;;;0.60;0.20;;;;;;;6.89;100.00;153130.44;4976880;28;20485;-84
2023/01/15 07:22:38;;;;;;;0.70;0.30;;;;;;;6.90;100.00;153133.03;4983508;28;20501;-85
2023/01/15 07:25:06;;;;;;;0.80;0.40;;;;;;;6.85;100.00;153118.81;4995486;28;20567;-85
2023/01/15 07:27:33;;;;;;;0.70;0.20;;;;;;;6.83;100.00;153114.94;5004692;28;20485;-84
2023/01/15 07:29:59;;;;;;;0.70;0.30;;;;;;;6.70;100.00;153081.38;5006172;28;20455;-84
2023/01/15 07:32:26;;;;;;;0.60;0.20;;;;;;;6.64;100.00;153067.22;5002393;28;20474;-84
2023/01/15 07:34:53;;;;;;;0.70;0.30;;;;;;;6.63;100.00;153063.31;4995700;28;20905;-84
2023/01/15 07:37:19;;;;;;;1.17;0.47;;;;;;;6.61;100.00;153058.16;4994143;28;20887;-84
2023/01/15 07:39:47;;;;;;;0.70;0.30;;;;;;;6.53;100.00;153037.50;4980345;28;21009;-85
2023/01/15 07:50:26;;;;;;;0.57;0.20;;;;;;;6.39;100.00;153001.38;4985011;28;20474;-84
2023/01/15 07:52:53;;;;;;;0.60;0.20;;;;;;;6.39;100.00;153002.66;4989412;28;20533;-85
2023/01/15 07:55:21;;;;;;;0.50;0.20;;;;;;;6.38;100.00;152998.81;4984052;28;20482;-84
2023/01/15 07:57:48;;;;;;;0.60;0.30;;;;;;;6.39;100.00;153001.38;4995587;28;20533;-84
2023/01/15 08:00:20;;;;;;;0.57;0.20;;;;;;;6.45;100.00;153018.16;4980260;28;20466;-84
2023/01/15 08:02:48;;;;;;;0.60;0.20;;;;;;;6.44;100.00;153014.28;4993393;28;20459;-84
2023/01/15 08:05:15;;;;;;;0.60;0.20;;;;;;;6.42;100.00;153009.13;4977520;28;20459;-85
2023/01/15 08:07:42;;;;;;;0.70;0.30;;;;;;;6.38;100.00;153000.06;4978500;28;20551;-84
2023/01/15 08:10:11;;;;;;;0.50;0.20;;;;;;;6.40;100.00;153003.97;4977178;28;20891;-85
2023/01/15 08:15:23;;;;;;;0.60;0.20;;;;;;;6.35;100.00;152992.38;4980203;28;20454;-84
2023/01/15 08:17:51;;;;;;;0.60;0.20;;;;;;;6.28;100.00;152972.97;4994770;28;20505;-84
2023/01/15 08:20:19;;;;;;;0.80;0.20;;;;;;;6.33;100.00;152987.16;4997111;28;20460;-84
2023/01/15 08:22:46;;;;;;;0.60;0.20;;;;;;;6.34;100.00;152989.78;4995326;28;20453;-86
2023/01/15 08:25:15;;;;;;;0.60;0.30;;;;;;;6.31;100.00;152980.72;4995805;28;20476;-84
2023/01/15 08:27:43;;;;;;;0.60;0.20;;;;;;;6.29;100.00;152976.88;4996494;28;20478;-85
2023/01/15 08:30:13;;;;;;;1.17;0.20;;;;;;;6.28;100.00;152972.97;4978963;28;20469;-84
2023/01/15 08:32:39;;;;;;;0.60;0.20;;;;;;;6.28;100.00;152972.97;4979999;28;20560;-84
2023/01/15 08:35:07;;;;;;;0.70;0.30;;;;;;;6.27;100.00;152970.41;4979297;28;20537;-85
2023/01/15 08:37:34;;;;;;;0.60;0.20;;;;;;;6.28;100.00;152972.97;4995750;28;20828;-84
2023/01/15 08:40:00;;;;;;;0.67;0.20;;;;;;;6.18;100.00;152947.19;4981817;28;20784;-84
2023/01/15 08:42:27;;;;;;;0.93;0.30;;;;;;;6.25;100.00;152966.53;4980755;28;20461;-85
2023/01/15 08:44:55;;;;;;;0.60;0.20;;;;;;;6.23;100.00;152960.06;4980127;28;20449;-84
2023/01/15 08:47:22;;;;;;;0.70;0.20;;;;;;;6.21;100.00;152954.94;4999472;28;20455;-84
2023/01/15 08:49:49;;;;;;;0.90;0.50;;;;;;;6.23;100.00;152960.06;5001106;28;20462;-85
2023/01/15 08:52:16;;;;;;;0.80;0.30;;;;;;;6.27;100.00;152970.41;4980989;28;21107;-84
2023/01/15 08:54:43;;;;;;;0.60;0.20;;;;;;;6.28;100.00;152972.97;4994836;28;20459;-84
2023/01/15 08:57:11;;;;;;;2.60;0.40;;;;;;;6.29;100.00;152975.56;4983539;28;20437;-84
2023/01/15 08:59:37;;;;;;;0.90;0.53;;;;;;;6.36;100.00;152993.63;4994998;28;20456;-84
2023/01/15 09:02:06;;;;;;;0.70;0.40;;;;;;;6.31;100.00;152980.72;4999093;28;20457;-85
2023/01/15 09:04:32;;;;;;;1.40;0.40;;;;;;;6.31;100.00;152980.72;4993819;28;20548;-85
2023/01/15 09:06:59;;;;;;;1.00;0.50;;;;;;;6.27;100.00;152971.72;4994983;28;20825;-84
2023/01/15 09:09:26;;;;;;;1.03;0.70;;;;;;;6.30;100.00;152979.41;4978762;28;20553;-85
2023/01/15 09:11:52;;;;;;;0.93;0.57;;;;;;;6.30;100.00;152978.16;4995219;28;20545;-85
2023/01/15 09:14:19;;;;;;;1.10;0.40;;;;;;;6.34;100.00;152988.47;4980128;28;20802;-85
2023/01/15 09:16:46;;;;;;;0.73;0.43;;;;;;;6.31;100.00;152980.72;4980896;28;20537;-85
2023/01/15 09:19:14;;;;;;;1.27;0.70;;;;;;;6.32;100.00;152983.31;4987712;28;20493;-84
2023/01/15 09:21:40;;;;;;;1.00;0.47;;;;;;;6.34;100.00;152988.47;4985004;28;20551;-85
2023/01/15 09:24:07;;;;;;;1.30;0.60;;;;;;;6.36;100.00;152993.63;4996821;28;20485;-84
2023/01/15 09:26:36;;;;;;;0.80;0.40;;;;;;;6.33;100.00;152985.91;4997050;28;20457;-85
2023/01/15 09:29:04;;;;;;;1.60;0.63;;;;;;;6.33;100.00;152985.91;4998552;28;20453;-85
2023/01/15 09:31:31;;;;;;;1.10;0.80;;;;;;;6.31;100.00;152980.72;4967753;28;20470;-85
2023/01/15 09:33:58;;;;;;;1.00;0.60;;;;;;;6.30;100.00;152978.16;4986617;28;20580;-84
2023/01/15 09:36:27;;;;;;;1.40;0.73;;;;;;;6.34;100.00;152988.47;4985496;28;20457;-84
2023/01/15 09:38:54;;;;;;;1.00;0.50;;;;;;;6.36;100.00;152993.63;4982486;28;20454;-85
2023/01/15 09:44:18;;;;;;;1.00;0.67;;;;;;;6.41;100.00;153006.53;4983406;28;20538;-85
2023/01/15 09:46:54;;;;;;;0.97;0.50;;;;;;;6.40;100.00;153003.97;4984886;28;20470;-84
2023/01/15 09:49:27;;;;;;;1.00;0.60;;;;;;;6.44;100.00;153015.56;4996901;28;20461;-85
2023/01/15 09:52:02;;;;;;;1.37;0.90;;;;;;;6.38;100.00;153000.06;4981271;28;20450;-84
2023/01/15 09:54:40;;;;;;;0.83;0.60;;;;;;;6.37;100.00;152997.53;4981248;28;20575;-85
2023/01/15 09:57:10;;;;;;;1.00;0.50;;;;;;;6.40;100.00;153003.97;4984225;28;20608;-84
2023/01/15 09:59:39;;;;;;;1.00;0.60;;;;;;;6.43;100.00;153013.03;4986703;28;20454;-85
2023/01/15 10:02:15;;;;;;;0.90;0.40;;;;;;;6.47;100.00;153023.31;4995553;28;20456;-84
2023/01/15 10:04:43;;;;;;;0.90;0.40;;;;;;;6.41;100.00;153006.53;4984658;28;20449;-84
2023/01/15 10:07:17;;;;;;;0.93;0.60;;;;;;;6.44;100.00;153015.56;4987190;28;20853;-84
2023/01/15 10:09:45;;;;;;;0.80;0.40;;;;;;;6.42;100.00;153009.13;4991003;28;20462;-85
2023/01/15 10:15:05;;;;;;;0.80;0.40;;;;;;;6.39;100.00;153001.38;4996554;28;20454;-84
2023/01/15 10:17:39;;;;;;;0.67;0.23;;;;;;;6.37;100.00;152996.22;4996375;28;20544;-84
2023/01/15 10:20:07;;;;;;;0.80;0.30;;;;;;;6.31;100.00;152980.72;4981518;28;20462;-84
2023/01/15 10:22:50;;;;;;;0.90;0.30;;;;;;;6.35;100.00;152992.38;4998014;28;20478;-84
2023/01/15 10:25:22;;;;;;;1.20;0.60;;;;;;;6.31;100.00;152982.03;4994358;28;20462;-84
2023/01/15 10:27:51;;;;;;;1.20;0.40;;;;;;;6.26;100.00;152967.81;4995253;28;20751;-85
2023/01/15 10:30:24;;;;;;;0.70;0.20;;;;;;;6.21;100.00;152954.94;4980248;28;20449;-84
2023/01/15 10:33:00;;;;;;;0.70;0.20;;;;;;;6.14;100.00;152939.44;4998145;28;20528;-84
2023/01/15 10:35:31;;;;;;;0.80;0.40;;;;;;;6.22;100.00;152958.81;4981090;28;20481;-86
2023/01/15 10:38:05;;;;;;;0.70;0.30;;;;;;;6.13;100.00;152935.59;4979430;28;20871;-84
2023/01/15 10:40:42;;;;;;;0.77;0.40;;;;;;;6.12;100.00;152934.28;4984346;28;20806;-84
2023/01/15 10:43:14;;;;;;;0.90;0.30;;;;;;;6.19;100.00;152949.78;4971489;28;20463;-84
2023/01/15 10:45:43;;;;;;;1.30;0.57;;;;;;;6.21;100.00;152956.22;4988199;28;20488;-84
2023/01/15 10:48:14;;;;;;;1.13;0.40;;;;;;;6.18;100.00;152947.19;4985865;28;20458;-84
2023/01/15 10:50:41;;;;;;;0.97;0.47;;;;;;;6.10;100.00;152929.13;4986374;28;20454;-84
2023/01/15 10:53:14;;;;;;;1.10;0.50;;;;;;;6.07;100.00;152921.38;4995965;28;20602;-84
2023/01/15 10:55:44;;;;;;;1.00;0.47;;;;;;;5.96;100.00;152893.00;4995222;28;20457;-84
2023/01/15 10:58:14;;;;;;;0.90;0.67;;;;;;;6.03;100.00;152911.09;4994480;28;20937;-84
2023/01/15 11:00:45;;;;;;;0.90;0.50;;;;;;;5.92;100.00;152882.69;4982108;28;20462;-84
2023/01/15 11:03:15;;;;;;;1.03;0.70;;;;;;;5.85;100.00;152864.63;4997003;28;20884;-84
2023/01/15 11:05:44;;;;;;;0.83;0.40;;;;;;;5.80;100.00;152851.66;4967602;28;20937;-84
2023/01/15 11:08:21;;;;;;;1.00;0.50;;;;;;;5.70;100.00;152825.88;4998708;28;20449;-85
2023/01/15 11:10:48;;;;;;;0.90;0.53;;;;;;;5.51;100.00;152778.19;4986579;28;20469;-84
2023/01/15 11:21:40;;;;;;;0.90;0.53;;;;;;;5.26;100.00;152712.44;4983268;28;20446;-84
2023/01/15 11:24:14;;;;;;;0.60;0.20;;;;;;;5.25;100.00;152711.13;4982426;28;20557;-82
2023/01/15 11:26:41;;;;;;;0.70;0.40;;;;;;;5.20;100.00;152696.94;4984661;28;20486;-84
2023/01/15 11:29:14;;;;;;;0.70;0.30;;;;;;;5.16;100.00;152686.66;4993082;28;21257;-85
2023/01/15 11:31:42;;;;;;;0.70;0.30;;;;;;;5.18;100.00;152691.81;4999707;28;20956;-85
2023/01/15 11:34:19;;;;;;;1.10;0.30;;;;;;;5.06;100.00;152660.84;5006414;28;20497;-84
2023/01/15 11:36:46;;;;;;;0.70;0.30;;;;;;;5.09;100.00;152668.59;5007138;28;20477;-85
2023/01/15 11:39:25;;;;;;;1.57;0.20;;;;;;;5.07;100.00;152663.44;4998816;28;20459;-85
2023/01/15 11:53:04;;;;;;;0.70;0.20;;;;;;;4.97;100.00;152637.69;4981464;28;20874;-84
2023/01/15 11:55:32;;;;;;;0.80;0.40;;;;;;;4.90;100.00;152622.19;4991367;28;20454;-85
2023/01/15 11:57:59;;;;;;;0.80;0.50;;;;;;;4.87;100.00;152614.47;4972713;28;20456;-85
2023/01/15 12:00:28;;;;;;;0.70;0.40;;;;;;;4.84;100.00;152606.72;4980643;28;20641;-84
2023/01/15 12:03:00;;;;;;;2.20;0.50;;;;;;;4.87;100.00;152614.47;4979905;28;20567;-85
2023/01/15 12:05:29;;;;;;;1.50;0.60;;;;;;;4.82;100.00;152600.28;4980080;28;20446;-85
2023/01/15 12:07:58;;;;;;;0.87;0.53;;;;;;;4.80;100.00;152596.44;4982446;28;20541;-85
2023/01/15 12:13:14;;;;;;;1.10;0.73;;;;;;;4.70;100.00;152570.66;4991368;28;20461;-84
2023/01/15 12:15:50;;;;;;;1.17;0.60;;;;;;;4.71;100.00;152573.22;4978345;28;20804;-76
2023/01/15 12:18:38;;;;;;;0.80;0.47;;;;;;;4.73;100.00;152577.13;4978081;28;20505;-76
2023/01/15 12:21:17;;;;;;;1.20;0.50;;;;;;;4.72;100.00;152575.81;4979724;28;20462;-75
2023/01/15 12:24:00;;;;;;;0.90;0.40;;;;;;;4.72;100.00;152575.81;4975272;28;20443;-76
2023/01/15 12:26:28;;;;;;;1.27;0.73;;;;;;;4.71;100.00;152573.22;4979582;28;20788;-76
2023/01/15 12:29:04;;;;;;;0.80;0.40;;;;;;;4.69;100.00;152568.06;4982514;28;20987;-85